createdAt,value
2023-03-08T00:01:16.198Z,2.40
2023-03-08T00:06:17.869Z,2.40
2023-03-08T00:11:19.795Z,2.30
2023-03-08T00:16:21.948Z,2.30
2023-03-08T00:21:23.698Z,2.30
2023-03-08T00:26:25.402Z,2.30
2023-03-08T00:31:27.163Z,2.30
2023-03-08T00:36:28.963Z,2.20
2023-03-08T00:41:30.683Z,2.40
2023-03-08T00:46:32.540Z,2.40
2023-03-08T00:51:34.312Z,2.50
2023-03-08T00:56:36.057Z,2.50
2023-03-08T01:01:37.724Z,2.50
2023-03-08T01:06:40.102Z,2.50
2023-03-08T01:11:43.284Z,2.50
2023-03-08T01:16:45.010Z,2.50
2023-03-08T01:21:46.717Z,2.60
2023-03-08T01:26:48.406Z,2.50
2023-03-08T01:31:50.099Z,2.50
2023-03-08T01:36:51.829Z,2.40
2023-03-08T01:41:53.525Z,2.40
2023-03-08T01:46:55.177Z,2.40
2023-03-08T01:52:13.647Z,2.40
2023-03-08T01:57:23.675Z,2.40
2023-03-08T02:02:31.346Z,2.40
2023-03-08T02:07:33.008Z,2.40
2023-03-08T02:12:35.920Z,2.40
2023-03-08T02:17:39.696Z,2.40
2023-03-08T02:22:43.225Z,2.30
2023-03-08T02:27:45.341Z,2.30
2023-03-08T02:32:47.057Z,2.20
2023-03-08T02:37:48.835Z,2.20
2023-03-08T02:42:53.200Z,2.20
2023-03-08T02:47:55.107Z,2.10
2023-03-08T02:52:57.049Z,2.10
2023-03-08T02:57:58.828Z,2.00
2023-03-08T03:03:00.574Z,1.80
2023-03-08T03:08:02.342Z,1.80
2023-03-08T03:13:05.098Z,1.80
2023-03-08T03:18:06.947Z,1.90
2023-03-08T03:23:08.875Z,2.00
2023-03-08T03:28:10.578Z,2.10
2023-03-08T03:33:12.253Z,2.20
2023-03-08T03:38:13.997Z,2.20
2023-03-08T03:43:15.745Z,2.20
2023-03-08T03:48:17.400Z,2.20
2023-03-08T03:53:19.126Z,2.30
2023-03-08T03:58:21.032Z,2.30
2023-03-08T04:03:22.899Z,2.30
2023-03-08T04:08:24.696Z,2.30
2023-03-08T04:13:26.470Z,2.30
2023-03-08T04:18:28.241Z,2.20
2023-03-08T04:23:30.317Z,2.30
2023-03-08T04:28:33.782Z,2.30
2023-03-08T04:33:35.526Z,2.30
2023-03-08T04:38:37.340Z,2.40
2023-03-08T04:43:41.149Z,2.40
2023-03-08T04:48:42.902Z,2.40
2023-03-08T04:53:45.489Z,2.50
2023-03-08T04:58:47.757Z,2.60
2023-03-08T05:03:50.154Z,2.50
2023-03-08T05:08:52.524Z,2.50
2023-03-08T05:13:55.585Z,2.50
2023-03-08T05:18:57.285Z,2.50
2023-03-08T05:24:00.426Z,2.50
2023-03-08T05:29:03.725Z,2.50
2023-03-08T05:34:05.457Z,2.60
2023-03-08T05:39:07.246Z,2.60
2023-03-08T05:44:09.034Z,2.50
2023-03-08T05:49:10.744Z,2.60
2023-03-08T05:54:12.541Z,2.70
2023-03-08T05:59:14.313Z,2.80
2023-03-08T06:04:16.046Z,2.80
2023-03-08T06:09:19.080Z,2.80
2023-03-08T06:14:20.975Z,2.80
2023-03-08T06:19:22.860Z,2.90
2023-03-08T06:24:24.566Z,3.00
2023-03-08T06:29:26.440Z,3.00
2023-03-08T06:34:28.194Z,3.00
2023-03-08T06:39:31.654Z,3.00
2023-03-08T06:44:33.931Z,3.10
2023-03-08T06:49:35.771Z,3.20
2023-03-08T06:54:37.502Z,3.30
2023-03-08T06:59:39.302Z,3.50
2023-03-08T07:04:41.029Z,3.70
2023-03-08T07:09:42.787Z,3.90
2023-03-08T07:14:44.493Z,4.00
2023-03-08T07:19:46.199Z,4.00
2023-03-08T07:24:49.704Z,4.10
2023-03-08T07:29:52.045Z,4.20
2023-03-08T07:34:53.735Z,4.40
2023-03-08T07:39:55.449Z,4.60
2023-03-08T07:44:57.190Z,4.80
2023-03-08T07:49:59.526Z,5.00
2023-03-08T07:55:02.721Z,5.20
2023-03-08T08:00:08.952Z,5.40
2023-03-08T08:05:10.830Z,5.60
2023-03-08T08:10:12.636Z,5.70
2023-03-08T08:15:14.396Z,5.90
2023-03-08T08:20:16.353Z,5.90
2023-03-08T08:25:18.111Z,5.90
2023-03-08T08:30:20.401Z,6.10
2023-03-08T08:35:25.477Z,6.10
2023-03-08T08:40:37.143Z,6.20
2023-03-08T08:45:44.517Z,6.20
2023-03-08T08:50:46.889Z,6.50
2023-03-08T08:55:48.626Z,6.50
2023-03-08T09:01:14.602Z,6.80
2023-03-08T09:06:20.344Z,6.90
2023-03-08T09:11:23.409Z,7.00
2023-03-08T09:16:30.663Z,7.00
2023-03-08T09:21:33.284Z,7.00
2023-03-08T09:26:35.062Z,6.40
2023-03-08T09:31:39.443Z,6.40
2023-03-08T09:36:41.924Z,6.10
2023-03-08T09:42:01.418Z,6.40
2023-03-08T09:47:13.647Z,6.30
2023-03-08T09:52:33.525Z,6.00
2023-03-08T09:57:45.842Z,5.50
2023-03-08T10:03:26.331Z,5.30
2023-03-08T10:08:45.312Z,4.80
2023-03-08T10:13:54.233Z,5.00
2023-03-08T10:19:05.729Z,4.80
2023-03-08T10:24:07.433Z,4.70
2023-03-08T10:29:12.522Z,4.60
2023-03-08T10:34:17.408Z,4.50
2023-03-08T10:39:20.977Z,4.70
2023-03-08T10:44:52.902Z,4.60
2023-03-08T10:50:18.085Z,4.80
2023-03-08T10:55:30.148Z,4.80
2023-03-08T11:00:41.140Z,4.90
2023-03-08T11:06:18.426Z,5.10
2023-03-08T11:11:20.348Z,5.00
2023-03-08T11:16:36.855Z,5.00
2023-03-08T11:21:44.602Z,5.00
2023-03-08T11:27:06.795Z,5.60
2023-03-08T11:32:58.243Z,5.10
2023-03-08T11:38:17.745Z,4.80
2023-03-08T11:43:45.191Z,4.70
2023-03-08T11:54:55.609Z,4.40
2023-03-08T12:00:13.087Z,4.80
2023-03-08T12:05:29.408Z,4.80
2023-03-08T12:10:50.554Z,4.90
2023-03-08T12:16:11.200Z,5.20
2023-03-08T12:22:03.447Z,5.30
2023-03-08T12:27:24.159Z,5.40
2023-03-08T12:32:26.984Z,5.10
2023-03-08T12:37:30.702Z,5.00
2023-03-08T12:42:40.660Z,5.20
2023-03-08T12:47:42.416Z,4.40
2023-03-08T12:52:52.960Z,5.00
2023-03-08T12:57:56.166Z,5.40
2023-03-08T13:03:13.276Z,5.10
2023-03-08T13:08:15.138Z,5.10
2023-03-08T13:13:40.307Z,5.00
2023-03-08T13:18:43.895Z,4.70
2023-03-08T13:24:17.261Z,4.60
2023-03-08T13:29:21.202Z,4.70
2023-03-08T13:34:31.736Z,4.60
2023-03-08T13:39:33.648Z,4.30
2023-03-08T13:44:35.680Z,4.80
2023-03-08T13:49:42.000Z,4.80
2023-03-08T13:54:48.635Z,5.20
2023-03-08T13:59:55.740Z,4.80
2023-03-08T14:04:58.745Z,4.80
2023-03-08T14:10:00.552Z,4.60
2023-03-08T14:15:04.654Z,5.00
2023-03-08T14:20:22.292Z,5.10
2023-03-08T14:25:32.612Z,5.20
2023-03-08T14:30:34.378Z,5.10
2023-03-08T14:35:39.693Z,4.90
2023-03-08T14:40:49.452Z,4.80
2023-03-08T14:46:04.728Z,4.70
2023-03-08T14:51:19.839Z,4.30
2023-03-08T14:56:21.595Z,4.40
2023-03-08T15:01:35.878Z,4.30
2023-03-08T15:06:40.227Z,4.20
2023-03-08T15:11:42.985Z,4.20
2023-03-08T15:16:44.780Z,4.10
2023-03-08T15:21:47.232Z,4.20
2023-03-08T15:26:48.960Z,4.10
2023-03-08T15:31:50.680Z,4.30
2023-03-08T15:36:53.492Z,4.50
2023-03-08T15:41:55.165Z,4.40
2023-03-08T15:46:56.964Z,4.40
2023-03-08T15:51:58.734Z,4.20
2023-03-08T15:57:00.535Z,4.40
2023-03-08T16:02:02.426Z,4.20
2023-03-08T16:07:04.731Z,3.90
2023-03-08T16:12:06.632Z,3.90
2023-03-08T16:17:09.103Z,3.90
2023-03-08T16:22:11.153Z,4.10
2023-03-08T16:27:13.015Z,4.10
2023-03-08T16:32:18.540Z,3.90
2023-03-08T16:37:21.077Z,3.60
2023-03-08T16:42:22.924Z,3.60
2023-03-08T16:47:26.612Z,3.80
2023-03-08T16:52:28.513Z,3.60
2023-03-08T16:57:30.234Z,3.50
2023-03-08T17:02:31.981Z,3.50
2023-03-08T17:07:33.835Z,3.50
2023-03-08T17:12:36.279Z,3.80
2023-03-08T17:17:41.405Z,3.80
2023-03-08T17:22:43.100Z,3.70
2023-03-08T17:27:44.823Z,3.60
2023-03-08T17:32:46.530Z,3.70
2023-03-08T17:37:50.038Z,3.60
2023-03-08T17:42:51.832Z,3.40
2023-03-08T17:48:00.507Z,3.20
2023-03-08T17:53:02.626Z,3.20
2023-03-08T17:58:04.290Z,3.40
2023-03-08T18:03:05.973Z,3.40
2023-03-08T18:08:07.686Z,3.40
2023-03-08T18:13:09.765Z,3.50
2023-03-08T18:18:11.455Z,3.60
2023-03-08T18:23:13.570Z,3.50
2023-03-08T18:28:16.617Z,3.50
2023-03-08T18:33:21.915Z,3.60
2023-03-08T18:38:24.692Z,3.30
2023-03-08T18:43:26.528Z,3.30
2023-03-08T18:48:28.239Z,3.40
2023-03-08T18:53:29.971Z,3.30
2023-03-08T18:58:32.053Z,3.10
2023-03-08T19:03:33.693Z,3.10
2023-03-08T19:08:35.714Z,3.10
2023-03-08T19:13:37.465Z,3.10
2023-03-08T19:18:39.150Z,3.20
2023-03-08T19:23:40.951Z,3.10
2023-03-08T19:28:42.636Z,3.10
2023-03-08T19:33:49.342Z,3.20
2023-03-08T19:38:51.151Z,3.20
2023-03-08T19:43:52.896Z,3.10
2023-03-08T19:48:55.031Z,3.10
2023-03-08T19:53:56.798Z,3.10
2023-03-08T19:58:59.432Z,3.00
2023-03-08T20:04:01.564Z,2.80
2023-03-08T20:09:05.159Z,2.80
2023-03-08T20:14:08.180Z,3.00
2023-03-08T20:19:10.101Z,3.00
2023-03-08T20:24:11.928Z,2.80
2023-03-08T20:29:13.972Z,2.90
2023-03-08T20:34:16.858Z,3.00
2023-03-08T20:39:18.580Z,2.90
2023-03-08T20:44:20.377Z,2.90
2023-03-08T20:49:22.126Z,3.00
2023-03-08T20:54:23.821Z,3.10
2023-03-08T20:59:28.582Z,2.90
2023-03-08T21:04:30.514Z,2.90
2023-03-08T21:09:33.191Z,3.00
2023-03-08T21:14:34.901Z,2.90
2023-03-08T21:19:37.106Z,2.90
2023-03-08T21:24:40.217Z,2.90
2023-03-08T21:29:42.131Z,2.90
2023-03-08T21:34:43.985Z,2.90
2023-03-08T21:39:46.158Z,2.90
2023-03-08T21:44:48.144Z,2.90
2023-03-08T21:49:50.278Z,3.00
2023-03-08T21:54:52.343Z,2.90
2023-03-08T21:59:55.638Z,2.70
2023-03-08T22:04:57.694Z,2.90
2023-03-08T22:09:59.515Z,3.00
2023-03-08T22:15:01.522Z,2.90
2023-03-08T22:20:05.489Z,2.70
2023-03-08T22:25:08.543Z,2.70
2023-03-08T22:30:11.778Z,2.50
2023-03-08T22:35:16.600Z,2.70
2023-03-08T22:40:19.539Z,2.70
2023-03-08T22:45:21.751Z,2.70
2023-03-08T22:50:23.759Z,2.70
2023-03-08T22:55:25.833Z,2.80
2023-03-08T23:00:28.129Z,2.70
2023-03-08T23:05:29.972Z,2.80
2023-03-08T23:10:34.414Z,2.60
2023-03-08T23:15:36.383Z,2.70
2023-03-08T23:20:39.502Z,2.70
2023-03-08T23:25:43.998Z,2.60
2023-03-08T23:30:45.770Z,2.50
2023-03-08T23:35:50.763Z,2.70
2023-03-08T23:40:52.589Z,2.70
2023-03-08T23:45:54.311Z,2.60
2023-03-08T23:50:56.058Z,2.50
2023-03-08T23:55:57.820Z,2.50
